sensor_id;sensor_type;location;lat;lon;timestamp;P1;durP1;ratioP1;P2;durP2;ratioP2
20038;SDS011;21737;42.868;25.320;2023-04-06T00:01:47;14.33;;;10.10;;
20038;SDS011;21737;42.868;25.320;2023-04-06T00:04:48;15.30;;;9.63;;
20038;SDS011;21737;42.868;25.320;2023-04-06T00:07:50;14.27;;;10.23;;
20038;SDS011;21737;42.868;25.320;2023-04-06T00:10:52;14.70;;;10.40;;
20038;SDS011;21737;42.868;25.320;2023-04-06T00:13:54;14.10;;;10.17;;
20038;SDS011;21737;42.868;25.320;2023-04-06T00:16:55;15.80;;;10.10;;
20038;SDS011;21737;42.868;25.320;2023-04-06T00:19:57;14.90;;;10.03;;
20038;SDS011;21737;42.868;25.320;2023-04-06T00:22:59;15.23;;;10.87;;
20038;SDS011;21737;42.868;25.320;2023-04-06T00:26:01;18.53;;;11.60;;
20038;SDS011;21737;42.868;25.320;2023-04-06T00:29:02;15.97;;;10.57;;
20038;SDS011;21737;42.868;25.320;2023-04-06T00:32:04;16.03;;;11.43;;
20038;SDS011;21737;42.868;25.320;2023-04-06T00:35:06;15.07;;;10.80;;
20038;SDS011;21737;42.868;25.320;2023-04-06T00:38:07;16.80;;;11.53;;
20038;SDS011;21737;42.868;25.320;2023-04-06T00:41:09;18.10;;;11.50;;
20038;SDS011;21737;42.868;25.320;2023-04-06T00:44:11;17.93;;;12.03;;
20038;SDS011;21737;42.868;25.320;2023-04-06T00:47:13;17.20;;;11.90;;
20038;SDS011;21737;42.868;25.320;2023-04-06T00:50:14;15.93;;;11.20;;
20038;SDS011;21737;42.868;25.320;2023-04-06T00:53:16;18.13;;;12.03;;
20038;SDS011;21737;42.868;25.320;2023-04-06T00:56:19;17.20;;;11.43;;
20038;SDS011;21737;42.868;25.320;2023-04-06T00:59:25;19.27;;;12.60;;
20038;SDS011;21737;42.868;25.320;2023-04-06T01:02:29;18.63;;;12.17;;
20038;SDS011;21737;42.868;25.320;2023-04-06T01:05:33;21.47;;;13.63;;
20038;SDS011;21737;42.868;25.320;2023-04-06T01:08:35;22.73;;;14.20;;
20038;SDS011;21737;42.868;25.320;2023-04-06T01:11:50;24.20;;;15.40;;
20038;SDS011;21737;42.868;25.320;2023-04-06T01:14:55;22.40;;;14.23;;
20038;SDS011;21737;42.868;25.320;2023-04-06T01:17:58;23.77;;;15.23;;
20038;SDS011;21737;42.868;25.320;2023-04-06T01:21:00;26.70;;;16.57;;
20038;SDS011;21737;42.868;25.320;2023-04-06T01:24:03;24.10;;;16.33;;
20038;SDS011;21737;42.868;25.320;2023-04-06T01:27:16;31.30;;;18.97;;
20038;SDS011;21737;42.868;25.320;2023-04-06T01:30:38;59.07;;;34.57;;
20038;SDS011;21737;42.868;25.320;2023-04-06T01:33:46;52.03;;;31.00;;
20038;SDS011;21737;42.868;25.320;2023-04-06T01:36:51;39.50;;;25.83;;
20038;SDS011;21737;42.868;25.320;2023-04-06T01:39:59;27.50;;;18.50;;
20038;SDS011;21737;42.868;25.320;2023-04-06T01:43:13;22.87;;;15.17;;
20038;SDS011;21737;42.868;25.320;2023-04-06T01:46:38;20.40;;;13.83;;
20038;SDS011;21737;42.868;25.320;2023-04-06T01:49:41;21.03;;;13.60;;
20038;SDS011;21737;42.868;25.320;2023-04-06T01:52:43;20.27;;;13.27;;
20038;SDS011;21737;42.868;25.320;2023-04-06T01:55:46;20.13;;;12.80;;
20038;SDS011;21737;42.868;25.320;2023-04-06T01:58:56;20.63;;;13.10;;
20038;SDS011;21737;42.868;25.320;2023-04-06T02:02:00;20.90;;;13.70;;
20038;SDS011;21737;42.868;25.320;2023-04-06T02:05:03;22.87;;;14.67;;
20038;SDS011;21737;42.868;25.320;2023-04-06T02:08:05;21.53;;;14.10;;
20038;SDS011;21737;42.868;25.320;2023-04-06T02:11:09;20.70;;;13.77;;
20038;SDS011;21737;42.868;25.320;2023-04-06T02:14:20;20.30;;;13.73;;
20038;SDS011;21737;42.868;25.320;2023-04-06T02:17:26;20.97;;;13.63;;
20038;SDS011;21737;42.868;25.320;2023-04-06T02:20:28;28.23;;;15.53;;
20038;SDS011;21737;42.868;25.320;2023-04-06T02:23:30;25.67;;;15.60;;
20038;SDS011;21737;42.868;25.320;2023-04-06T02:26:31;24.47;;;15.33;;
20038;SDS011;21737;42.868;25.320;2023-04-06T02:29:33;23.17;;;14.40;;
20038;SDS011;21737;42.868;25.320;2023-04-06T02:32:35;23.00;;;14.73;;
20038;SDS011;21737;42.868;25.320;2023-04-06T02:35:38;26.87;;;15.50;;
20038;SDS011;21737;42.868;25.320;2023-04-06T02:38:39;26.90;;;16.13;;
20038;SDS011;21737;42.868;25.320;2023-04-06T02:41:41;24.93;;;15.93;;
20038;SDS011;21737;42.868;25.320;2023-04-06T02:44:44;25.20;;;15.63;;
20038;SDS011;21737;42.868;25.320;2023-04-06T02:47:46;29.13;;;16.00;;
20038;SDS011;21737;42.868;25.320;2023-04-06T02:50:50;26.60;;;16.97;;
20038;SDS011;21737;42.868;25.320;2023-04-06T02:53:52;30.60;;;16.77;;
20038;SDS011;21737;42.868;25.320;2023-04-06T02:56:54;24.63;;;16.20;;
20038;SDS011;21737;42.868;25.320;2023-04-06T03:00:00;25.47;;;16.23;;
20038;SDS011;21737;42.868;25.320;2023-04-06T03:03:10;32.80;;;17.00;;
20038;SDS011;21737;42.868;25.320;2023-04-06T03:06:13;26.33;;;16.23;;
20038;SDS011;21737;42.868;25.320;2023-04-06T03:09:15;24.07;;;15.77;;
20038;SDS011;21737;42.868;25.320;2023-04-06T03:12:18;28.43;;;14.80;;
20038;SDS011;21737;42.868;25.320;2023-04-06T03:15:52;24.67;;;15.33;;
20038;SDS011;21737;42.868;25.320;2023-04-06T03:18:55;24.57;;;15.33;;
20038;SDS011;21737;42.868;25.320;2023-04-06T03:21:57;25.67;;;16.47;;
20038;SDS011;21737;42.868;25.320;2023-04-06T03:24:59;29.90;;;18.03;;
20038;SDS011;21737;42.868;25.320;2023-04-06T03:28:05;29.47;;;17.60;;
20038;SDS011;21737;42.868;25.320;2023-04-06T03:31:12;28.80;;;17.33;;
20038;SDS011;21737;42.868;25.320;2023-04-06T03:34:29;29.97;;;18.57;;
20038;SDS011;21737;42.868;25.320;2023-04-06T03:37:31;34.47;;;20.67;;
20038;SDS011;21737;42.868;25.320;2023-04-06T03:40:36;34.90;;;20.50;;
20038;SDS011;21737;42.868;25.320;2023-04-06T03:43:38;30.00;;;18.60;;
20038;SDS011;21737;42.868;25.320;2023-04-06T03:46:39;31.60;;;19.30;;
20038;SDS011;21737;42.868;25.320;2023-04-06T03:49:42;30.37;;;18.17;;
20038;SDS011;21737;42.868;25.320;2023-04-06T03:52:46;30.13;;;18.27;;
20038;SDS011;21737;42.868;25.320;2023-04-06T03:55:47;37.37;;;20.83;;
20038;SDS011;21737;42.868;25.320;2023-04-06T03:58:49;37.20;;;22.20;;
20038;SDS011;21737;42.868;25.320;2023-04-06T04:01:54;30.50;;;18.93;;
20038;SDS011;21737;42.868;25.320;2023-04-06T04:04:57;30.40;;;17.97;;
20038;SDS011;21737;42.868;25.320;2023-04-06T04:07:59;26.20;;;15.87;;
20038;SDS011;21737;42.868;25.320;2023-04-06T04:11:03;25.53;;;16.77;;
20038;SDS011;21737;42.868;25.320;2023-04-06T04:14:05;32.77;;;18.43;;
20038;SDS011;21737;42.868;25.320;2023-04-06T04:17:07;28.33;;;18.43;;
20038;SDS011;21737;42.868;25.320;2023-04-06T04:20:08;27.03;;;16.43;;
20038;SDS011;21737;42.868;25.320;2023-04-06T04:23:10;33.80;;;18.23;;
20038;SDS011;21737;42.868;25.320;2023-04-06T04:26:12;28.77;;;16.73;;
20038;SDS011;21737;42.868;25.320;2023-04-06T04:29:18;28.20;;;17.27;;
20038;SDS011;21737;42.868;25.320;2023-04-06T04:32:26;26.87;;;16.50;;
20038;SDS011;21737;42.868;25.320;2023-04-06T04:35:34;28.77;;;17.43;;
20038;SDS011;21737;42.868;25.320;2023-04-06T04:38:35;27.97;;;17.33;;
20038;SDS011;21737;42.868;25.320;2023-04-06T04:41:37;25.77;;;16.13;;
20038;SDS011;21737;42.868;25.320;2023-04-06T04:44:43;38.93;;;19.37;;
20038;SDS011;21737;42.868;25.320;2023-04-06T04:47:46;32.23;;;17.70;;
20038;SDS011;21737;42.868;25.320;2023-04-06T04:50:50;40.60;;;21.00;;
20038;SDS011;21737;42.868;25.320;2023-04-06T04:53:56;37.30;;;19.57;;
20038;SDS011;21737;42.868;25.320;2023-04-06T04:57:01;32.43;;;18.00;;
20038;SDS011;21737;42.868;25.320;2023-04-06T05:00:12;34.90;;;19.23;;
20038;SDS011;21737;42.868;25.320;2023-04-06T05:03:19;34.77;;;19.57;;
20038;SDS011;21737;42.868;25.320;2023-04-06T05:06:31;39.80;;;21.37;;
20038;SDS011;21737;42.868;25.320;2023-04-06T05:09:35;45.33;;;22.73;;
20038;SDS011;21737;42.868;25.320;2023-04-06T05:12:37;38.00;;;18.70;;
20038;SDS011;21737;42.868;25.320;2023-04-06T05:15:44;38.47;;;22.17;;
20038;SDS011;21737;42.868;25.320;2023-04-06T05:18:55;34.67;;;20.43;;
20038;SDS011;21737;42.868;25.320;2023-04-06T05:22:03;43.17;;;21.55;;
20038;SDS011;21737;42.868;25.320;2023-04-06T05:25:08;43.20;;;19.40;;
20038;SDS011;21737;42.868;25.320;2023-04-06T05:28:11;29.63;;;17.83;;
20038;SDS011;21737;42.868;25.320;2023-04-06T05:31:15;28.40;;;18.60;;
20038;SDS011;21737;42.868;25.320;2023-04-06T05:34:22;20.03;;;13.10;;
20038;SDS011;21737;42.868;25.320;2023-04-06T05:37:25;26.60;;;17.13;;
20038;SDS011;21737;42.868;25.320;2023-04-06T05:40:27;22.33;;;12.53;;
20038;SDS011;21737;42.868;25.320;2023-04-06T05:43:28;27.50;;;15.97;;
20038;SDS011;21737;42.868;25.320;2023-04-06T05:46:32;24.13;;;16.77;;
20038;SDS011;21737;42.868;25.320;2023-04-06T05:49:35;28.30;;;16.80;;
20038;SDS011;21737;42.868;25.320;2023-04-06T05:52:40;26.30;;;16.17;;
20038;SDS011;21737;42.868;25.320;2023-04-06T05:55:46;28.93;;;13.60;;
20038;SDS011;21737;42.868;25.320;2023-04-06T05:58:52;17.50;;;11.13;;
20038;SDS011;21737;42.868;25.320;2023-04-06T06:02:00;17.33;;;11.03;;
20038;SDS011;21737;42.868;25.320;2023-04-06T06:05:06;22.80;;;12.83;;
20038;SDS011;21737;42.868;25.320;2023-04-06T06:08:08;22.83;;;12.93;;
20038;SDS011;21737;42.868;25.320;2023-04-06T06:11:12;17.77;;;11.30;;
20038;SDS011;21737;42.868;25.320;2023-04-06T06:14:13;17.47;;;12.20;;
20038;SDS011;21737;42.868;25.320;2023-04-06T06:17:15;22.87;;;13.07;;
20038;SDS011;21737;42.868;25.320;2023-04-06T06:20:20;21.50;;;13.20;;
20038;SDS011;21737;42.868;25.320;2023-04-06T06:23:22;17.53;;;11.00;;
20038;SDS011;21737;42.868;25.320;2023-04-06T06:26:24;17.77;;;11.40;;
20038;SDS011;21737;42.868;25.320;2023-04-06T06:29:26;16.47;;;11.23;;
20038;SDS011;21737;42.868;25.320;2023-04-06T06:32:27;17.93;;;10.93;;
20038;SDS011;21737;42.868;25.320;2023-04-06T06:35:29;30.00;;;11.83;;
20038;SDS011;21737;42.868;25.320;2023-04-06T06:38:35;15.97;;;10.43;;
20038;SDS011;21737;42.868;25.320;2023-04-06T06:41:38;25.47;;;12.10;;
20038;SDS011;21737;42.868;25.320;2023-04-06T06:44:40;18.63;;;11.10;;
20038;SDS011;21737;42.868;25.320;2023-04-06T06:47:42;16.30;;;11.13;;
20038;SDS011;21737;42.868;25.320;2023-04-06T06:50:46;22.80;;;11.50;;
20038;SDS011;21737;42.868;25.320;2023-04-06T06:53:48;14.43;;;10.07;;
20038;SDS011;21737;42.868;25.320;2023-04-06T06:56:50;17.73;;;10.30;;
20038;SDS011;21737;42.868;25.320;2023-04-06T06:59:52;31.23;;;13.17;;
20038;SDS011;21737;42.868;25.320;2023-04-06T07:02:55;31.60;;;19.27;;
20038;SDS011;21737;42.868;25.320;2023-04-06T07:05:57;14.00;;;8.10;;
20038;SDS011;21737;42.868;25.320;2023-04-06T07:08:59;18.27;;;10.57;;
20038;SDS011;21737;42.868;25.320;2023-04-06T07:12:01;17.30;;;9.77;;
20038;SDS011;21737;42.868;25.320;2023-04-06T07:15:03;19.17;;;10.30;;
20038;SDS011;21737;42.868;25.320;2023-04-06T07:18:07;28.90;;;9.40;;
20038;SDS011;21737;42.868;25.320;2023-04-06T07:21:09;22.37;;;9.43;;
20038;SDS011;21737;42.868;25.320;2023-04-06T07:24:11;15.03;;;8.67;;
20038;SDS011;21737;42.868;25.320;2023-04-06T07:27:12;45.10;;;17.43;;
20038;SDS011;21737;42.868;25.320;2023-04-06T07:30:14;31.13;;;11.63;;
20038;SDS011;21737;42.868;25.320;2023-04-06T07:33:16;10.50;;;7.40;;
20038;SDS011;21737;42.868;25.320;2023-04-06T07:36:18;16.57;;;8.63;;
20038;SDS011;21737;42.868;25.320;2023-04-06T07:39:20;12.10;;;7.67;;
20038;SDS011;21737;42.868;25.320;2023-04-06T07:42:22;20.00;;;8.80;;
20038;SDS011;21737;42.868;25.320;2023-04-06T07:45:24;15.63;;;6.23;;
20038;SDS011;21737;42.868;25.320;2023-04-06T07:48:26;12.83;;;7.77;;
20038;SDS011;21737;42.868;25.320;2023-04-06T07:51:28;9.80;;;6.77;;
20038;SDS011;21737;42.868;25.320;2023-04-06T07:54:30;12.50;;;8.60;;
20038;SDS011;21737;42.868;25.320;2023-04-06T07:57:32;11.90;;;7.90;;
20038;SDS011;21737;42.868;25.320;2023-04-06T08:00:33;14.53;;;8.37;;
20038;SDS011;21737;42.868;25.320;2023-04-06T08:03:35;20.23;;;8.97;;
20038;SDS011;21737;42.868;25.320;2023-04-06T08:06:37;16.87;;;9.00;;
20038;SDS011;21737;42.868;25.320;2023-04-06T08:09:39;13.43;;;7.93;;
20038;SDS011;21737;42.868;25.320;2023-04-06T08:12:41;13.30;;;7.30;;
20038;SDS011;21737;42.868;25.320;2023-04-06T08:15:43;13.20;;;7.73;;
20038;SDS011;21737;42.868;25.320;2023-04-06T08:18:44;15.07;;;7.50;;
20038;SDS011;21737;42.868;25.320;2023-04-06T08:21:46;16.43;;;8.77;;
20038;SDS011;21737;42.868;25.320;2023-04-06T08:24:48;10.93;;;6.60;;
20038;SDS011;21737;42.868;25.320;2023-04-06T08:27:50;11.63;;;6.70;;
20038;SDS011;21737;42.868;25.320;2023-04-06T08:30:52;8.50;;;6.60;;
20038;SDS011;21737;42.868;25.320;2023-04-06T08:33:53;12.37;;;6.63;;
20038;SDS011;21737;42.868;25.320;2023-04-06T08:36:55;9.80;;;6.67;;
20038;SDS011;21737;42.868;25.320;2023-04-06T08:39:57;12.63;;;8.37;;
20038;SDS011;21737;42.868;25.320;2023-04-06T08:42:59;10.43;;;7.00;;
20038;SDS011;21737;42.868;25.320;2023-04-06T08:46:03;18.63;;;7.97;;
20038;SDS011;21737;42.868;25.320;2023-04-06T08:49:05;12.03;;;7.47;;
20038;SDS011;21737;42.868;25.320;2023-04-06T08:52:10;14.93;;;7.30;;
20038;SDS011;21737;42.868;25.320;2023-04-06T08:55:12;11.17;;;6.90;;
20038;SDS011;21737;42.868;25.320;2023-04-06T08:58:14;13.47;;;6.90;;
20038;SDS011;21737;42.868;25.320;2023-04-06T09:01:32;13.63;;;8.33;;
20038;SDS011;21737;42.868;25.320;2023-04-06T09:04:35;12.67;;;7.90;;
20038;SDS011;21737;42.868;25.320;2023-04-06T09:07:37;14.00;;;7.73;;
20038;SDS011;21737;42.868;25.320;2023-04-06T09:10:42;16.43;;;8.27;;
20038;SDS011;21737;42.868;25.320;2023-04-06T09:13:48;14.00;;;8.80;;
20038;SDS011;21737;42.868;25.320;2023-04-06T09:16:50;15.73;;;8.37;;
20038;SDS011;21737;42.868;25.320;2023-04-06T09:19:52;13.67;;;8.57;;
20038;SDS011;21737;42.868;25.320;2023-04-06T09:22:54;12.47;;;8.30;;
20038;SDS011;21737;42.868;25.320;2023-04-06T09:29:07;12.33;;;7.97;;
20038;SDS011;21737;42.868;25.320;2023-04-06T09:32:09;19.40;;;8.07;;
20038;SDS011;21737;42.868;25.320;2023-04-06T09:35:18;10.70;;;7.07;;
20038;SDS011;21737;42.868;25.320;2023-04-06T09:38:21;10.40;;;7.20;;
20038;SDS011;21737;42.868;25.320;2023-04-06T09:41:23;13.03;;;7.93;;
20038;SDS011;21737;42.868;25.320;2023-04-06T09:44:25;15.10;;;8.50;;
20038;SDS011;21737;42.868;25.320;2023-04-06T09:47:28;31.40;;;13.13;;
20038;SDS011;21737;42.868;25.320;2023-04-06T09:50:30;10.00;;;6.20;;
20038;SDS011;21737;42.868;25.320;2023-04-06T09:53:32;21.07;;;12.60;;
20038;SDS011;21737;42.868;25.320;2023-04-06T09:56:40;11.10;;;6.93;;
20038;SDS011;21737;42.868;25.320;2023-04-06T10:05:57;14.30;;;6.90;;
20038;SDS011;21737;42.868;25.320;2023-04-06T10:09:00;9.90;;;5.80;;
20038;SDS011;21737;42.868;25.320;2023-04-06T10:12:03;11.43;;;8.13;;
20038;SDS011;21737;42.868;25.320;2023-04-06T10:15:05;8.67;;;6.20;;
20038;SDS011;21737;42.868;25.320;2023-04-06T10:18:07;17.90;;;10.70;;
20038;SDS011;21737;42.868;25.320;2023-04-06T10:21:10;8.33;;;5.63;;
20038;SDS011;21737;42.868;25.320;2023-04-06T10:24:13;14.13;;;9.37;;
20038;SDS011;21737;42.868;25.320;2023-04-06T10:27:15;11.33;;;6.73;;
20038;SDS011;21737;42.868;25.320;2023-04-06T10:30:16;9.47;;;6.20;;
20038;SDS011;21737;42.868;25.320;2023-04-06T10:33:19;11.47;;;7.27;;
20038;SDS011;21737;42.868;25.320;2023-04-06T10:36:22;15.03;;;6.57;;
20038;SDS011;21737;42.868;25.320;2023-04-06T10:39:24;15.70;;;7.90;;
20038;SDS011;21737;42.868;25.320;2023-04-06T10:42:36;8.43;;;5.33;;
20038;SDS011;21737;42.868;25.320;2023-04-06T10:45:39;10.97;;;6.70;;
20038;SDS011;21737;42.868;25.320;2023-04-06T10:48:44;8.00;;;6.40;;
20038;SDS011;21737;42.868;25.320;2023-04-06T10:51:51;10.73;;;5.07;;
20038;SDS011;21737;42.868;25.320;2023-04-06T10:54:53;6.07;;;4.93;;
20038;SDS011;21737;42.868;25.320;2023-04-06T10:57:57;7.63;;;5.30;;
20038;SDS011;21737;42.868;25.320;2023-04-06T11:00:59;15.73;;;6.10;;
20038;SDS011;21737;42.868;25.320;2023-04-06T11:04:01;13.07;;;6.40;;
20038;SDS011;21737;42.868;25.320;2023-04-06T11:07:04;6.50;;;4.93;;
20038;SDS011;21737;42.868;25.320;2023-04-06T11:10:06;8.43;;;6.00;;
20038;SDS011;21737;42.868;25.320;2023-04-06T11:13:18;13.80;;;7.97;;
20038;SDS011;21737;42.868;25.320;2023-04-06T11:19:22;10.03;;;5.90;;
20038;SDS011;21737;42.868;25.320;2023-04-06T11:22:24;8.33;;;6.00;;
20038;SDS011;21737;42.868;25.320;2023-04-06T11:25:26;14.33;;;5.60;;
20038;SDS011;21737;42.868;25.320;2023-04-06T11:28:29;8.87;;;6.10;;
20038;SDS011;21737;42.868;25.320;2023-04-06T11:31:31;8.17;;;5.13;;
20038;SDS011;21737;42.868;25.320;2023-04-06T11:34:37;7.03;;;5.10;;
20038;SDS011;21737;42.868;25.320;2023-04-06T11:37:39;8.50;;;5.70;;
20038;SDS011;21737;42.868;25.320;2023-04-06T11:40:44;9.33;;;6.50;;
20038;SDS011;21737;42.868;25.320;2023-04-06T11:43:49;9.53;;;5.73;;
20038;SDS011;21737;42.868;25.320;2023-04-06T11:46:52;8.17;;;5.20;;
20038;SDS011;21737;42.868;25.320;2023-04-06T11:49:53;8.67;;;5.30;;
20038;SDS011;21737;42.868;25.320;2023-04-06T11:52:59;6.30;;;4.43;;
20038;SDS011;21737;42.868;25.320;2023-04-06T11:56:04;9.03;;;6.10;;
20038;SDS011;21737;42.868;25.320;2023-04-06T11:59:06;9.67;;;5.87;;
20038;SDS011;21737;42.868;25.320;2023-04-06T12:02:08;6.27;;;4.60;;
20038;SDS011;21737;42.868;25.320;2023-04-06T12:05:10;9.60;;;5.00;;
20038;SDS011;21737;42.868;25.320;2023-04-06T12:08:11;6.43;;;5.07;;
20038;SDS011;21737;42.868;25.320;2023-04-06T12:11:13;7.83;;;5.40;;
20038;SDS011;21737;42.868;25.320;2023-04-06T12:14:15;10.80;;;5.53;;
20038;SDS011;21737;42.868;25.320;2023-04-06T12:17:18;7.30;;;5.10;;
20038;SDS011;21737;42.868;25.320;2023-04-06T12:20:19;12.27;;;5.77;;
20038;SDS011;21737;42.868;25.320;2023-04-06T12:23:26;6.83;;;4.47;;
20038;SDS011;21737;42.868;25.320;2023-04-06T12:26:28;9.43;;;6.47;;
20038;SDS011;21737;42.868;25.320;2023-04-06T12:29:30;9.00;;;6.00;;
20038;SDS011;21737;42.868;25.320;2023-04-06T12:32:31;10.07;;;6.57;;
20038;SDS011;21737;42.868;25.320;2023-04-06T12:35:33;8.70;;;5.63;;
20038;SDS011;21737;42.868;25.320;2023-04-06T12:38:35;6.47;;;4.93;;
20038;SDS011;21737;42.868;25.320;2023-04-06T12:41:39;9.83;;;5.80;;
20038;SDS011;21737;42.868;25.320;2023-04-06T12:44:43;10.00;;;6.47;;
20038;SDS011;21737;42.868;25.320;2023-04-06T12:47:45;10.87;;;6.77;;
20038;SDS011;21737;42.868;25.320;2023-04-06T12:50:53;9.87;;;6.67;;
20038;SDS011;21737;42.868;25.320;2023-04-06T12:53:55;7.10;;;5.50;;
20038;SDS011;21737;42.868;25.320;2023-04-06T12:56:57;11.83;;;6.07;;
20038;SDS011;21737;42.868;25.320;2023-04-06T12:59:59;18.53;;;9.57;;
20038;SDS011;21737;42.868;25.320;2023-04-06T13:03:01;8.57;;;5.80;;
20038;SDS011;21737;42.868;25.320;2023-04-06T13:06:03;10.60;;;7.67;;
20038;SDS011;21737;42.868;25.320;2023-04-06T13:09:05;17.57;;;8.60;;
20038;SDS011;21737;42.868;25.320;2023-04-06T13:12:07;10.17;;;7.13;;
20038;SDS011;21737;42.868;25.320;2023-04-06T13:15:08;20.43;;;11.10;;
20038;SDS011;21737;42.868;25.320;2023-04-06T13:18:10;15.00;;;8.10;;
20038;SDS011;21737;42.868;25.320;2023-04-06T13:21:15;16.33;;;9.70;;
20038;SDS011;21737;42.868;25.320;2023-04-06T13:24:17;9.20;;;6.10;;
20038;SDS011;21737;42.868;25.320;2023-04-06T13:27:20;13.33;;;6.30;;
20038;SDS011;21737;42.868;25.320;2023-04-06T13:30:22;8.17;;;5.60;;
20038;SDS011;21737;42.868;25.320;2023-04-06T13:33:24;17.17;;;8.50;;
20038;SDS011;21737;42.868;25.320;2023-04-06T13:36:25;10.93;;;6.80;;
20038;SDS011;21737;42.868;25.320;2023-04-06T13:39:28;9.97;;;7.20;;
20038;SDS011;21737;42.868;25.320;2023-04-06T13:42:29;8.57;;;5.83;;
20038;SDS011;21737;42.868;25.320;2023-04-06T13:45:31;14.93;;;6.53;;
20038;SDS011;21737;42.868;25.320;2023-04-06T13:48:33;13.83;;;9.17;;
20038;SDS011;21737;42.868;25.320;2023-04-06T13:51:35;10.00;;;7.43;;
20038;SDS011;21737;42.868;25.320;2023-04-06T13:54:36;9.97;;;6.27;;
20038;SDS011;21737;42.868;25.320;2023-04-06T13:57:38;12.87;;;8.47;;
20038;SDS011;21737;42.868;25.320;2023-04-06T14:00:40;7.83;;;5.50;;
20038;SDS011;21737;42.868;25.320;2023-04-06T14:03:41;13.97;;;7.67;;
20038;SDS011;21737;42.868;25.320;2023-04-06T14:06:46;7.80;;;5.67;;
20038;SDS011;21737;42.868;25.320;2023-04-06T14:09:48;8.27;;;5.90;;
20038;SDS011;21737;42.868;25.320;2023-04-06T14:12:50;7.37;;;5.87;;
20038;SDS011;21737;42.868;25.320;2023-04-06T14:15:52;9.00;;;7.17;;
20038;SDS011;21737;42.868;25.320;2023-04-06T14:18:54;14.13;;;6.53;;
20038;SDS011;21737;42.868;25.320;2023-04-06T14:21:59;14.30;;;6.67;;
20038;SDS011;21737;42.868;25.320;2023-04-06T14:25:01;13.03;;;8.27;;
20038;SDS011;21737;42.868;25.320;2023-04-06T14:28:03;11.13;;;6.50;;
20038;SDS011;21737;42.868;25.320;2023-04-06T14:31:14;16.50;;;6.50;;
20038;SDS011;21737;42.868;25.320;2023-04-06T14:34:17;19.57;;;8.20;;
20038;SDS011;21737;42.868;25.320;2023-04-06T14:37:18;12.23;;;7.80;;
20038;SDS011;21737;42.868;25.320;2023-04-06T14:40:21;14.47;;;8.03;;
20038;SDS011;21737;42.868;25.320;2023-04-06T14:43:23;19.00;;;8.80;;
20038;SDS011;21737;42.868;25.320;2023-04-06T14:46:26;19.90;;;11.13;;
20038;SDS011;21737;42.868;25.320;2023-04-06T14:49:28;14.70;;;8.53;;
20038;SDS011;21737;42.868;25.320;2023-04-06T14:52:29;13.73;;;8.60;;
20038;SDS011;21737;42.868;25.320;2023-04-06T14:55:38;9.47;;;6.70;;
20038;SDS011;21737;42.868;25.320;2023-04-06T14:58:40;12.97;;;6.70;;
20038;SDS011;21737;42.868;25.320;2023-04-06T15:01:41;20.17;;;7.73;;
20038;SDS011;21737;42.868;25.320;2023-04-06T15:04:43;9.87;;;6.93;;
20038;SDS011;21737;42.868;25.320;2023-04-06T15:07:45;11.87;;;7.47;;
20038;SDS011;21737;42.868;25.320;2023-04-06T15:10:47;18.20;;;8.57;;
20038;SDS011;21737;42.868;25.320;2023-04-06T15:13:48;10.03;;;7.07;;
20038;SDS011;21737;42.868;25.320;2023-04-06T15:16:50;11.30;;;6.90;;
20038;SDS011;21737;42.868;25.320;2023-04-06T15:19:52;14.90;;;9.43;;
20038;SDS011;21737;42.868;25.320;2023-04-06T15:22:54;15.67;;;9.67;;
20038;SDS011;21737;42.868;25.320;2023-04-06T15:25:56;15.43;;;9.00;;
20038;SDS011;21737;42.868;25.320;2023-04-06T15:28:59;14.57;;;9.57;;
20038;SDS011;21737;42.868;25.320;2023-04-06T15:32:01;21.43;;;11.13;;
20038;SDS011;21737;42.868;25.320;2023-04-06T15:35:10;20.07;;;12.00;;
20038;SDS011;21737;42.868;25.320;2023-04-06T15:38:11;15.80;;;10.13;;
20038;SDS011;21737;42.868;25.320;2023-04-06T15:41:13;19.57;;;10.33;;
20038;SDS011;21737;42.868;25.320;2023-04-06T15:44:16;17.20;;;8.83;;
20038;SDS011;21737;42.868;25.320;2023-04-06T15:47:18;13.90;;;9.50;;
20038;SDS011;21737;42.868;25.320;2023-04-06T15:50:19;16.30;;;10.30;;
20038;SDS011;21737;42.868;25.320;2023-04-06T15:53:21;17.40;;;10.90;;
20038;SDS011;21737;42.868;25.320;2023-04-06T15:56:23;13.03;;;8.93;;
20038;SDS011;21737;42.868;25.320;2023-04-06T15:59:36;14.50;;;9.80;;
20038;SDS011;21737;42.868;25.320;2023-04-06T16:02:37;18.70;;;13.30;;
20038;SDS011;21737;42.868;25.320;2023-04-06T16:05:40;18.17;;;11.40;;
20038;SDS011;21737;42.868;25.320;2023-04-06T16:08:59;19.23;;;10.63;;
20038;SDS011;21737;42.868;25.320;2023-04-06T16:12:02;22.87;;;12.63;;
20038;SDS011;21737;42.868;25.320;2023-04-06T16:15:04;19.13;;;10.30;;
20038;SDS011;21737;42.868;25.320;2023-04-06T16:18:06;14.10;;;9.03;;
20038;SDS011;21737;42.868;25.320;2023-04-06T16:21:16;13.80;;;9.70;;
20038;SDS011;21737;42.868;25.320;2023-04-06T16:24:18;24.20;;;14.53;;
20038;SDS011;21737;42.868;25.320;2023-04-06T16:27:23;12.17;;;8.40;;
20038;SDS011;21737;42.868;25.320;2023-04-06T16:30:24;14.97;;;10.23;;
20038;SDS011;21737;42.868;25.320;2023-04-06T16:33:29;19.83;;;10.07;;
20038;SDS011;21737;42.868;25.320;2023-04-06T16:36:37;22.43;;;12.10;;
20038;SDS011;21737;42.868;25.320;2023-04-06T16:39:47;13.40;;;8.70;;
20038;SDS011;21737;42.868;25.320;2023-04-06T16:42:48;13.40;;;8.07;;
20038;SDS011;21737;42.868;25.320;2023-04-06T16:45:50;12.27;;;8.30;;
20038;SDS011;21737;42.868;25.320;2023-04-06T16:48:57;11.27;;;7.90;;
20038;SDS011;21737;42.868;25.320;2023-04-06T16:52:00;15.20;;;10.43;;
20038;SDS011;21737;42.868;25.320;2023-04-06T16:55:06;22.60;;;12.30;;
20038;SDS011;21737;42.868;25.320;2023-04-06T16:58:08;19.97;;;11.77;;
20038;SDS011;21737;42.868;25.320;2023-04-06T17:01:23;19.07;;;11.93;;
20038;SDS011;21737;42.868;25.320;2023-04-06T17:04:26;24.70;;;12.70;;
20038;SDS011;21737;42.868;25.320;2023-04-06T17:07:27;29.80;;;15.27;;
20038;SDS011;21737;42.868;25.320;2023-04-06T17:10:33;20.33;;;11.13;;
20038;SDS011;21737;42.868;25.320;2023-04-06T17:13:52;23.20;;;12.27;;
20038;SDS011;21737;42.868;25.320;2023-04-06T17:16:54;25.37;;;14.10;;
20038;SDS011;21737;42.868;25.320;2023-04-06T17:19:58;21.07;;;10.87;;
20038;SDS011;21737;42.868;25.320;2023-04-06T17:23:00;14.77;;;10.33;;
20038;SDS011;21737;42.868;25.320;2023-04-06T17:26:03;17.17;;;10.90;;
20038;SDS011;21737;42.868;25.320;2023-04-06T17:29:05;21.10;;;10.67;;
20038;SDS011;21737;42.868;25.320;2023-04-06T17:32:07;21.10;;;11.80;;
20038;SDS011;21737;42.868;25.320;2023-04-06T17:35:09;21.70;;;13.33;;
20038;SDS011;21737;42.868;25.320;2023-04-06T17:38:11;18.17;;;11.00;;
20038;SDS011;21737;42.868;25.320;2023-04-06T17:41:13;21.87;;;14.07;;
20038;SDS011;21737;42.868;25.320;2023-04-06T17:44:15;23.03;;;14.70;;
20038;SDS011;21737;42.868;25.320;2023-04-06T17:47:17;18.20;;;12.50;;
20038;SDS011;21737;42.868;25.320;2023-04-06T17:50:18;22.87;;;12.13;;
20038;SDS011;21737;42.868;25.320;2023-04-06T17:53:20;16.93;;;10.83;;
20038;SDS011;21737;42.868;25.320;2023-04-06T17:56:22;20.00;;;13.33;;
20038;SDS011;21737;42.868;25.320;2023-04-06T17:59:24;19.70;;;14.50;;